createdAt,value
2023-05-05T00:01:41.333Z,10.28
2023-05-05T00:04:11.574Z,10.38
2023-05-05T00:06:41.806Z,10.30
2023-05-05T00:09:11.894Z,10.38
2023-05-05T00:11:41.987Z,10.36
2023-05-05T00:14:12.178Z,10.37
2023-05-05T00:16:42.575Z,10.35
2023-05-05T00:19:12.849Z,10.30
2023-05-05T00:21:43.028Z,10.31
2023-05-05T00:24:13.115Z,10.14
2023-05-05T00:26:43.241Z,10.20
2023-05-05T00:29:13.351Z,10.17
2023-05-05T00:31:43.568Z,10.16
2023-05-05T00:34:13.718Z,10.12
2023-05-05T00:36:43.989Z,10.20
2023-05-05T00:39:14.410Z,10.21
2023-05-05T00:41:44.612Z,10.19
2023-05-05T00:44:15.839Z,10.16
2023-05-05T00:46:46.158Z,10.09
2023-05-05T00:49:16.586Z,10.03
2023-05-05T00:51:46.825Z,10.00
2023-05-05T00:54:17.180Z,9.99
2023-05-05T00:56:48.312Z,9.80
2023-05-05T00:59:18.576Z,9.89
2023-05-05T01:01:48.763Z,9.88
2023-05-05T01:04:19.003Z,9.90
2023-05-05T01:07:12.518Z,10.01
2023-05-05T01:10:15.142Z,10.01
2023-05-05T01:13:03.882Z,9.95
2023-05-05T01:15:41.832Z,9.77
2023-05-05T01:18:14.118Z,9.86
2023-05-05T01:21:10.232Z,9.87
2023-05-05T01:24:05.117Z,9.77
2023-05-05T01:26:35.277Z,9.75
2023-05-05T01:29:11.110Z,9.77
2023-05-05T01:31:55.275Z,9.81
2023-05-05T01:34:34.728Z,9.77
2023-05-05T01:37:12.715Z,9.86
2023-05-05T01:39:45.743Z,9.71
2023-05-05T01:42:18.768Z,9.85
2023-05-05T01:44:50.053Z,9.88
2023-05-05T01:47:22.454Z,9.86
2023-05-05T01:49:52.993Z,9.84
2023-05-05T01:52:24.517Z,9.83
2023-05-05T01:54:56.793Z,9.86
2023-05-05T01:57:31.462Z,9.78
2023-05-05T02:00:04.759Z,9.73
2023-05-05T02:02:36.307Z,9.75
2023-05-05T02:05:07.432Z,9.63
2023-05-05T02:07:38.537Z,9.65
2023-05-05T02:10:10.670Z,9.53
2023-05-05T02:12:43.124Z,9.67
2023-05-05T02:15:15.326Z,9.68
2023-05-05T02:17:47.399Z,9.69
2023-05-05T02:20:19.331Z,9.60
2023-05-05T02:22:49.712Z,9.43
2023-05-05T02:25:20.433Z,9.56
2023-05-05T02:27:56.815Z,9.61
2023-05-05T02:30:29.168Z,9.52
2023-05-05T02:33:07.622Z,9.44
2023-05-05T02:35:42.342Z,9.43
2023-05-05T02:38:17.968Z,9.39
2023-05-05T02:40:51.000Z,9.28
2023-05-05T02:43:24.251Z,9.22
2023-05-05T02:45:54.534Z,9.18
2023-05-05T02:48:24.725Z,9.14
2023-05-05T02:50:54.868Z,9.08
2023-05-05T02:53:27.017Z,9.00
2023-05-05T02:56:16.865Z,8.95
2023-05-05T02:59:16.362Z,9.05
2023-05-05T03:01:54.931Z,9.03
2023-05-05T03:04:37.594Z,8.85
2023-05-05T03:07:14.508Z,8.81
2023-05-05T03:09:55.964Z,8.87
2023-05-05T03:12:30.638Z,8.90
2023-05-05T03:15:02.478Z,8.87
2023-05-05T03:17:34.000Z,8.81
2023-05-05T03:20:07.653Z,8.91
2023-05-05T03:22:38.060Z,8.86
2023-05-05T03:25:08.720Z,8.87
2023-05-05T03:27:38.841Z,8.76
2023-05-05T03:30:09.820Z,8.86
2023-05-05T03:32:40.309Z,8.80
2023-05-05T03:35:10.451Z,8.70
2023-05-05T03:37:40.678Z,8.66
2023-05-05T03:40:11.259Z,8.62
2023-05-05T03:42:41.977Z,8.66
2023-05-05T03:45:13.026Z,8.57
2023-05-05T03:47:43.410Z,8.42
2023-05-05T03:50:13.675Z,8.42
2023-05-05T03:52:43.844Z,8.23
2023-05-05T03:55:13.954Z,8.31
2023-05-05T03:57:46.100Z,8.36
2023-05-05T04:00:16.627Z,8.39
2023-05-05T04:02:46.864Z,8.33
2023-05-05T04:05:17.062Z,8.36
2023-05-05T04:07:47.212Z,8.12
2023-05-05T04:10:17.383Z,8.09
2023-05-05T04:12:47.442Z,8.16
2023-05-05T04:15:17.668Z,8.20
2023-05-05T04:20:26.632Z,8.17
2023-05-05T04:22:56.748Z,8.18
2023-05-05T04:25:26.926Z,8.22
2023-05-05T04:27:57.084Z,8.25
2023-05-05T04:30:27.229Z,8.24
2023-05-05T04:32:57.344Z,8.22
2023-05-05T04:35:27.476Z,8.27
2023-05-05T04:37:57.629Z,8.28
2023-05-05T04:40:27.764Z,8.20
2023-05-05T04:42:58.324Z,8.16
2023-05-05T04:45:28.415Z,8.14
2023-05-05T04:47:58.687Z,8.24
2023-05-05T04:50:28.829Z,8.30
2023-05-05T04:52:59.053Z,8.28
2023-05-05T04:55:29.321Z,8.26
2023-05-05T04:57:59.570Z,8.31
2023-05-05T05:00:29.843Z,8.33
2023-05-05T05:03:01.171Z,8.31
2023-05-05T05:05:31.365Z,8.26
2023-05-05T05:08:01.506Z,8.29
2023-05-05T05:10:31.765Z,8.22
2023-05-05T05:13:02.371Z,8.22
2023-05-05T05:15:32.635Z,8.21
2023-05-05T05:18:02.879Z,8.24
2023-05-05T05:20:33.162Z,8.20
2023-05-05T05:23:04.641Z,8.29
2023-05-05T05:25:34.776Z,8.29
2023-05-05T05:28:09.441Z,8.27
2023-05-05T05:30:40.241Z,8.26
2023-05-05T05:33:11.728Z,8.21
2023-05-05T05:35:41.873Z,8.24
2023-05-05T05:38:12.051Z,8.17
2023-05-05T05:40:42.504Z,8.27
2023-05-05T05:43:12.866Z,8.32
2023-05-05T05:45:43.454Z,8.23
2023-05-05T05:48:13.648Z,8.32
2023-05-05T05:50:47.029Z,8.25
2023-05-05T05:53:18.109Z,8.40
2023-05-05T05:55:48.390Z,8.38
2023-05-05T05:58:18.654Z,8.37
2023-05-05T06:00:49.310Z,8.31
2023-05-05T06:03:19.573Z,8.40
2023-05-05T06:05:50.681Z,8.46
2023-05-05T06:08:21.671Z,8.64
2023-05-05T06:10:53.014Z,8.62
2023-05-05T06:13:23.310Z,8.61
2023-05-05T06:15:53.437Z,8.72
2023-05-05T06:18:23.726Z,8.76
2023-05-05T06:20:53.852Z,8.80
2023-05-05T06:23:24.658Z,9.00
2023-05-05T06:25:55.819Z,9.02
2023-05-05T06:28:26.170Z,9.05
2023-05-05T06:30:56.675Z,9.20
2023-05-05T06:33:26.957Z,9.29
2023-05-05T06:35:57.100Z,9.36
2023-05-05T06:38:27.183Z,9.48
2023-05-05T06:40:58.695Z,9.59
2023-05-05T06:43:29.747Z,9.63
2023-05-05T06:45:59.955Z,9.70
2023-05-05T06:48:30.099Z,9.75
2023-05-05T06:51:00.304Z,9.90
2023-05-05T06:53:30.509Z,9.96
2023-05-05T06:56:00.670Z,10.04
2023-05-05T06:58:31.902Z,10.07
2023-05-05T07:01:02.239Z,10.13
2023-05-05T07:03:32.509Z,10.11
2023-05-05T07:06:03.806Z,10.33
2023-05-05T07:08:33.935Z,10.41
2023-05-05T07:11:04.164Z,10.47
2023-05-05T07:13:34.235Z,10.55
2023-05-05T07:16:05.112Z,10.69
2023-05-05T07:18:35.309Z,10.74
2023-05-05T07:21:06.823Z,10.80
2023-05-05T07:23:38.097Z,10.83
2023-05-05T07:26:08.498Z,10.95
2023-05-05T07:28:38.736Z,10.89
2023-05-05T07:31:09.203Z,11.05
2023-05-05T07:33:39.333Z,11.03
2023-05-05T07:36:09.497Z,11.00
2023-05-05T07:38:39.865Z,11.05
2023-05-05T07:41:13.150Z,11.04
2023-05-05T07:43:44.612Z,11.16
2023-05-05T07:46:15.608Z,11.28
2023-05-05T07:48:46.024Z,11.36
2023-05-05T07:51:16.373Z,11.24
2023-05-05T07:53:46.563Z,11.32
2023-05-05T07:56:16.707Z,11.37
2023-05-05T07:58:46.932Z,11.42
2023-05-05T08:01:17.141Z,11.50
2023-05-05T08:03:47.473Z,11.56
2023-05-05T08:06:22.339Z,11.65
2023-05-05T08:08:53.586Z,11.79
2023-05-05T08:11:23.907Z,11.90
2023-05-05T08:13:54.022Z,11.87
2023-05-05T08:16:24.438Z,12.08
2023-05-05T08:18:54.599Z,12.16
2023-05-05T08:21:24.847Z,12.26
2023-05-05T08:23:55.065Z,12.20
2023-05-05T08:26:25.333Z,12.32
2023-05-05T08:29:02.744Z,12.41
2023-05-05T08:31:34.222Z,12.47
2023-05-05T08:34:07.729Z,12.47
2023-05-05T08:36:38.008Z,12.66
2023-05-05T08:39:08.735Z,12.58
2023-05-05T08:41:40.655Z,12.77
2023-05-05T08:44:13.537Z,12.67
2023-05-05T08:46:44.105Z,12.87
2023-05-05T08:49:16.570Z,12.98
2023-05-05T08:51:47.624Z,13.04
2023-05-05T08:54:27.055Z,13.13
2023-05-05T08:57:02.286Z,13.19
2023-05-05T08:59:33.578Z,13.17
2023-05-05T09:02:05.525Z,13.32
2023-05-05T09:04:36.535Z,13.40
2023-05-05T09:07:07.004Z,13.46
2023-05-05T09:09:38.623Z,13.56
2023-05-05T09:12:08.847Z,13.60
2023-05-05T09:17:29.047Z,13.83
2023-05-05T09:20:07.960Z,13.80
2023-05-05T09:22:39.308Z,13.97
2023-05-05T09:25:12.226Z,14.03
2023-05-05T09:27:47.364Z,14.03
2023-05-05T09:30:23.837Z,14.15
2023-05-05T09:32:54.844Z,14.31
2023-05-05T09:35:25.947Z,14.33
2023-05-05T09:37:56.059Z,14.38
2023-05-05T09:40:26.309Z,14.42
2023-05-05T09:43:02.653Z,14.59
2023-05-05T09:45:32.785Z,14.66
2023-05-05T09:48:02.999Z,14.66
2023-05-05T09:50:44.020Z,14.71
2023-05-05T09:53:14.505Z,14.84
2023-05-05T09:56:01.679Z,14.96
2023-05-05T09:58:32.104Z,14.97
2023-05-05T10:01:02.254Z,14.88
2023-05-05T10:03:33.429Z,15.07
2023-05-05T10:06:04.803Z,15.14
2023-05-05T10:08:35.032Z,15.19
2023-05-05T10:11:07.093Z,15.26
2023-05-05T10:13:41.187Z,15.37
2023-05-05T10:16:13.380Z,15.55
2023-05-05T10:18:46.912Z,15.63
2023-05-05T10:21:20.756Z,15.60
2023-05-05T10:24:22.828Z,15.69
2023-05-05T10:26:54.364Z,15.75
2023-05-05T10:29:28.582Z,15.88
2023-05-05T10:32:21.418Z,15.80
2023-05-05T10:35:02.913Z,15.86
2023-05-05T10:37:33.866Z,15.88
2023-05-05T10:40:05.321Z,15.96
2023-05-05T10:42:39.695Z,16.05
2023-05-05T10:45:10.264Z,16.02
2023-05-05T10:47:40.924Z,16.01
2023-05-05T10:50:28.159Z,15.91
2023-05-05T10:53:36.056Z,16.25
2023-05-05T10:56:09.989Z,16.40
2023-05-05T10:58:58.228Z,16.40
2023-05-05T11:01:34.693Z,16.43
2023-05-05T11:04:21.829Z,16.47
2023-05-05T11:07:18.666Z,16.54
2023-05-05T11:10:15.999Z,16.60
2023-05-05T11:12:52.709Z,16.63
2023-05-05T11:15:29.250Z,16.65
2023-05-05T11:18:05.799Z,16.66
2023-05-05T11:20:37.288Z,16.65
2023-05-05T11:23:07.546Z,16.70
2023-05-05T11:25:38.983Z,16.79
2023-05-05T11:28:10.881Z,16.86
2023-05-05T11:30:59.501Z,16.96
2023-05-05T11:33:32.145Z,17.08
2023-05-05T11:36:08.966Z,17.07
2023-05-05T11:38:39.073Z,17.10
2023-05-05T11:41:33.618Z,17.20
2023-05-05T11:44:17.646Z,17.19
2023-05-05T11:46:50.830Z,17.06
2023-05-05T11:49:27.739Z,17.08
2023-05-05T11:51:59.448Z,17.17
2023-05-05T11:54:30.645Z,17.33
2023-05-05T11:57:08.670Z,17.52
2023-05-05T11:59:57.693Z,17.74
2023-05-05T12:02:29.972Z,17.76
2023-05-05T12:05:01.066Z,17.76
2023-05-05T12:07:33.556Z,17.91
2023-05-05T12:10:04.006Z,17.98
2023-05-05T12:12:40.201Z,18.09
2023-05-05T12:15:10.552Z,18.45
2023-05-05T12:17:45.115Z,18.68
2023-05-05T12:20:15.590Z,19.39
2023-05-05T12:22:45.848Z,20.00
2023-05-05T12:25:16.386Z,20.57
2023-05-05T12:27:55.685Z,21.18
2023-05-05T12:30:25.980Z,21.79
2023-05-05T12:33:04.081Z,22.69
2023-05-05T12:35:35.200Z,23.34
2023-05-05T12:38:05.490Z,23.77
2023-05-05T12:41:02.830Z,24.26
2023-05-05T12:43:34.883Z,24.71
2023-05-05T12:46:10.747Z,25.24
2023-05-05T12:48:45.700Z,25.64
2023-05-05T12:51:23.646Z,26.43
2023-05-05T12:54:10.368Z,27.36
2023-05-05T12:56:45.674Z,28.21
2023-05-05T12:59:21.845Z,28.75
2023-05-05T13:01:54.198Z,29.26
2023-05-05T13:04:27.514Z,29.83
2023-05-05T13:07:14.941Z,29.79
2023-05-05T13:09:45.481Z,29.88
2023-05-05T13:12:19.013Z,30.50
2023-05-05T13:14:49.201Z,30.72
2023-05-05T13:17:19.486Z,30.77
2023-05-05T13:19:49.791Z,30.76
2023-05-05T13:22:20.056Z,30.95
2023-05-05T13:24:52.792Z,30.97
2023-05-05T13:27:23.878Z,30.79
2023-05-05T13:29:57.324Z,30.41
2023-05-05T13:32:29.224Z,29.82
2023-05-05T13:34:59.725Z,29.44
2023-05-05T13:37:31.891Z,29.26
2023-05-05T13:40:07.833Z,28.91
2023-05-05T13:42:41.611Z,28.60
2023-05-05T13:45:12.631Z,28.60
2023-05-05T13:47:45.867Z,28.65
2023-05-05T13:50:17.218Z,29.29
2023-05-05T13:52:47.794Z,30.14
2023-05-05T13:55:18.912Z,30.83
2023-05-05T13:57:52.388Z,30.85
2023-05-05T14:00:23.717Z,30.52
2023-05-05T14:02:54.850Z,30.20
2023-05-05T14:05:26.403Z,30.02
2023-05-05T14:07:56.963Z,29.95
2023-05-05T14:10:30.365Z,30.00
2023-05-05T14:13:00.994Z,30.45
2023-05-05T14:15:32.151Z,31.23
2023-05-05T14:18:02.879Z,31.71
2023-05-05T14:20:34.553Z,31.93
2023-05-05T14:23:04.902Z,32.33
2023-05-05T14:25:35.865Z,32.46
2023-05-05T14:28:07.021Z,32.04
2023-05-05T14:30:37.647Z,32.18
2023-05-05T14:33:08.154Z,32.38
2023-05-05T14:35:38.735Z,32.58
2023-05-05T14:38:10.477Z,32.63
2023-05-05T14:40:40.906Z,31.79
2023-05-05T14:43:12.653Z,30.62
2023-05-05T14:45:44.666Z,30.24
2023-05-05T14:48:17.305Z,29.91
2023-05-05T14:50:49.016Z,29.95
2023-05-05T14:53:19.858Z,29.34
2023-05-05T14:55:50.478Z,28.32
2023-05-05T14:58:22.601Z,27.55
2023-05-05T15:00:54.802Z,26.96
2023-05-05T15:03:25.470Z,26.43
2023-05-05T15:05:57.154Z,26.02
2023-05-05T15:08:27.616Z,25.40
2023-05-05T15:10:58.311Z,24.68
2023-05-05T15:13:30.203Z,23.95
2023-05-05T15:16:06.086Z,23.27
2023-05-05T15:18:36.577Z,22.80
2023-05-05T15:21:06.802Z,22.27
2023-05-05T15:23:37.230Z,21.79
2023-05-05T15:26:07.379Z,21.46
2023-05-05T15:28:38.130Z,21.04
2023-05-05T15:31:11.469Z,20.58
2023-05-05T15:33:42.752Z,20.12
2023-05-05T15:36:13.303Z,19.85
2023-05-05T15:38:43.994Z,19.38
2023-05-05T15:41:14.512Z,19.26
2023-05-05T15:43:44.970Z,19.00
2023-05-05T15:46:16.134Z,18.77
2023-05-05T15:48:46.935Z,18.45
2023-05-05T15:51:17.592Z,18.30
2023-05-05T15:53:48.384Z,17.89
2023-05-05T15:56:18.959Z,17.70
2023-05-05T15:58:51.688Z,17.51
2023-05-05T16:01:22.432Z,17.39
2023-05-05T16:03:53.048Z,17.31
2023-05-05T16:06:23.817Z,17.10
2023-05-05T16:08:54.047Z,17.10
2023-05-05T16:11:26.495Z,16.92
2023-05-05T16:13:57.266Z,16.64
2023-05-05T16:16:27.852Z,16.50
2023-05-05T16:18:59.315Z,16.11
2023-05-05T16:21:30.494Z,15.94
2023-05-05T16:24:01.528Z,15.68
2023-05-05T16:26:33.369Z,15.61
2023-05-05T16:29:04.312Z,15.54
2023-05-05T16:31:35.741Z,15.38
2023-05-05T16:34:06.382Z,15.27
2023-05-05T16:36:37.738Z,15.18
2023-05-05T16:39:08.163Z,15.14
2023-05-05T16:41:38.362Z,15.00
2023-05-05T16:44:08.641Z,14.66
2023-05-05T16:46:40.228Z,14.51
2023-05-05T16:49:10.488Z,14.36
2023-05-05T16:51:40.972Z,14.26
2023-05-05T16:54:11.158Z,14.20
2023-05-05T16:56:41.357Z,14.10
2023-05-05T16:59:11.669Z,14.12
2023-05-05T17:01:43.525Z,14.11
2023-05-05T17:04:13.865Z,14.05
2023-05-05T17:06:44.067Z,13.74
2023-05-05T17:09:14.279Z,13.61
2023-05-05T17:11:44.512Z,13.58
2023-05-05T17:14:14.695Z,13.47
2023-05-05T17:16:44.933Z,13.43
2023-05-05T17:19:15.193Z,13.17
2023-05-05T17:21:45.488Z,13.04
2023-05-05T17:24:15.743Z,12.97
2023-05-05T17:26:45.951Z,12.85
2023-05-05T17:29:19.931Z,12.79
2023-05-05T17:31:50.864Z,12.67
2023-05-05T17:34:21.170Z,12.63
2023-05-05T17:36:51.281Z,12.58
2023-05-05T17:39:21.376Z,12.47
2023-05-05T17:41:51.870Z,12.31
2023-05-05T17:44:22.114Z,12.39
2023-05-05T17:46:52.336Z,12.34
2023-05-05T17:49:22.783Z,12.24
2023-05-05T17:51:52.879Z,12.08
2023-05-05T17:54:23.047Z,11.81
2023-05-05T17:56:53.404Z,11.93
2023-05-05T17:59:23.682Z,11.67
2023-05-05T18:01:53.749Z,11.70
2023-05-05T18:04:24.121Z,11.71
2023-05-05T18:06:57.223Z,11.70
2023-05-05T18:09:27.556Z,11.44
2023-05-05T18:11:57.844Z,11.45
2023-05-05T18:14:28.042Z,11.49
2023-05-05T18:16:58.201Z,11.42
2023-05-05T18:19:28.467Z,11.40
2023-05-05T18:21:59.204Z,11.22
2023-05-05T18:24:29.649Z,10.95
2023-05-05T18:26:59.828Z,11.03
2023-05-05T18:29:29.947Z,11.10
2023-05-05T18:32:00.253Z,10.96
2023-05-05T18:34:30.517Z,10.93
2023-05-05T18:37:00.730Z,10.77
2023-05-05T18:39:30.930Z,10.87
2023-05-05T18:42:04.044Z,10.89
2023-05-05T18:44:35.123Z,10.81
2023-05-05T18:47:05.338Z,10.84
2023-05-05T18:49:35.529Z,10.74
2023-05-05T18:52:05.673Z,10.72
2023-05-05T18:54:37.821Z,10.70
2023-05-05T18:57:08.280Z,10.47
2023-05-05T18:59:38.495Z,10.51
2023-05-05T19:02:08.775Z,10.44
2023-05-05T19:04:41.478Z,10.40
2023-05-05T19:07:18.410Z,10.31
2023-05-05T19:09:54.157Z,10.28
2023-05-05T19:12:24.296Z,10.19
2023-05-05T19:14:54.500Z,10.27
2023-05-05T19:17:24.802Z,10.06
2023-05-05T19:19:54.985Z,10.24
2023-05-05T19:22:25.616Z,10.11
2023-05-05T19:24:55.833Z,10.06
2023-05-05T19:27:26.078Z,10.08
2023-05-05T19:29:56.298Z,9.96
2023-05-05T19:32:26.944Z,10.02
2023-05-05T19:34:57.081Z,9.94
2023-05-05T19:37:27.638Z,9.95
2023-05-05T19:39:57.691Z,9.87
2023-05-05T19:42:28.767Z,9.93
2023-05-05T19:44:58.944Z,9.71
2023-05-05T19:47:29.081Z,9.76
2023-05-05T19:49:59.339Z,9.83
2023-05-05T19:52:29.491Z,9.67
2023-05-05T19:54:59.653Z,9.69
2023-05-05T19:57:32.670Z,9.71
2023-05-05T20:00:04.048Z,9.63
2023-05-05T20:02:43.260Z,9.56
2023-05-05T20:05:20.237Z,9.57
2023-05-05T20:07:53.665Z,9.58
2023-05-05T20:10:31.045Z,9.58
2023-05-05T20:13:04.918Z,9.54
2023-05-05T20:15:37.960Z,9.38
2023-05-05T20:18:13.537Z,9.43
2023-05-05T20:20:43.737Z,9.30
2023-05-05T20:23:13.899Z,9.38
2023-05-05T20:25:44.201Z,9.37
2023-05-05T20:28:14.317Z,9.31
2023-05-05T20:30:44.564Z,9.16
2023-05-05T20:33:14.669Z,9.15
2023-05-05T20:35:44.795Z,9.09
2023-05-05T20:38:15.087Z,9.10
2023-05-05T20:40:45.242Z,9.14
2023-05-05T20:43:15.397Z,9.06
2023-05-05T20:45:45.554Z,8.99
2023-05-05T20:48:15.744Z,9.13
2023-05-05T20:50:46.092Z,8.94
2023-05-05T20:53:21.014Z,8.97
2023-05-05T20:55:51.418Z,8.96
2023-05-05T20:58:21.563Z,8.93
2023-05-05T21:00:51.769Z,8.84
2023-05-05T21:03:22.003Z,8.94
2023-05-05T21:05:52.195Z,8.79
2023-05-05T21:08:22.700Z,8.70
2023-05-05T21:10:52.815Z,8.72
2023-05-05T21:13:23.332Z,8.76
2023-05-05T21:15:53.510Z,8.83
2023-05-05T21:18:25.911Z,8.71
2023-05-05T21:21:02.785Z,8.66
2023-05-05T21:23:36.334Z,8.65
2023-05-05T21:26:10.802Z,8.67
2023-05-05T21:28:49.606Z,8.63
2023-05-05T21:31:24.225Z,8.63
2023-05-05T21:33:58.187Z,8.72
2023-05-05T21:36:34.055Z,8.70
2023-05-05T21:39:11.540Z,8.69
2023-05-05T21:41:47.509Z,8.64
2023-05-05T21:44:20.489Z,8.64
2023-05-05T21:46:55.665Z,8.59
2023-05-05T21:49:25.864Z,8.59
2023-05-05T21:51:59.018Z,8.53
2023-05-05T21:54:30.341Z,8.50
2023-05-05T21:57:03.887Z,8.53
2023-05-05T21:59:34.687Z,8.45
2023-05-05T22:02:04.996Z,8.30
2023-05-05T22:04:35.141Z,8.36
2023-05-05T22:07:05.318Z,8.41
2023-05-05T22:09:35.716Z,8.29
2023-05-05T22:12:06.060Z,8.35
2023-05-05T22:14:36.191Z,8.29
2023-05-05T22:17:06.434Z,8.37
2023-05-05T22:19:36.511Z,8.23
2023-05-05T22:22:07.170Z,8.36
2023-05-05T22:24:37.275Z,8.34
2023-05-05T22:27:07.385Z,8.30
2023-05-05T22:29:39.054Z,8.31
2023-05-05T22:32:09.118Z,8.37
2023-05-05T22:34:39.340Z,8.30
2023-05-05T22:37:09.656Z,8.36
2023-05-05T22:39:39.846Z,8.36
2023-05-05T22:42:10.140Z,8.34
2023-05-05T22:44:40.244Z,8.24
2023-05-05T22:47:10.611Z,8.34
2023-05-05T22:49:41.005Z,8.25
2023-05-05T22:52:11.287Z,8.18
2023-05-05T22:54:41.526Z,8.29
2023-05-05T22:57:12.134Z,8.18
2023-05-05T22:59:42.186Z,8.24
2023-05-05T23:02:12.396Z,8.29
2023-05-05T23:04:45.026Z,8.26
2023-05-05T23:07:15.708Z,8.26
2023-05-05T23:09:47.055Z,8.26
2023-05-05T23:12:17.754Z,8.18
2023-05-05T23:14:48.624Z,8.15
2023-05-05T23:17:18.782Z,8.20
2023-05-05T23:19:49.513Z,8.18
2023-05-05T23:22:19.613Z,8.17
2023-05-05T23:24:49.747Z,8.15
2023-05-05T23:27:19.946Z,8.07
2023-05-05T23:29:50.262Z,7.95
2023-05-05T23:32:20.751Z,8.00
2023-05-05T23:34:50.888Z,8.04
2023-05-05T23:37:21.831Z,8.08
2023-05-05T23:39:52.161Z,8.03
2023-05-05T23:42:22.389Z,7.98
2023-05-05T23:44:52.458Z,7.84
2023-05-05T23:47:22.670Z,7.90
2023-05-05T23:49:52.789Z,7.84
2023-05-05T23:52:22.908Z,7.84
2023-05-05T23:54:53.040Z,7.78
2023-05-05T23:57:23.152Z,7.59
2023-05-05T23:59:53.257Z,7.75
